sensor_id;sensor_type;location;lat;lon;timestamp;temperature;humidity
18741;DHT22;9499;52.472;13.448;2023-03-08T00:00:05;1.50;99.90
18741;DHT22;9499;52.472;13.448;2023-03-08T00:02:32;1.50;99.90
18741;DHT22;9499;52.472;13.448;2023-03-08T00:04:58;1.50;99.90
18741;DHT22;9499;52.472;13.448;2023-03-08T00:07:27;1.40;99.90
18741;DHT22;9499;52.472;13.448;2023-03-08T00:09:54;1.40;99.90
18741;DHT22;9499;52.472;13.448;2023-03-08T00:12:20;1.40;99.90
18741;DHT22;9499;52.472;13.448;2023-03-08T00:14:47;1.30;99.90
18741;DHT22;9499;52.472;13.448;2023-03-08T00:17:14;1.40;99.90
18741;DHT22;9499;52.472;13.448;2023-03-08T00:19:41;1.40;99.90
18741;DHT22;9499;52.472;13.448;2023-03-08T00:22:07;1.30;99.90
18741;DHT22;9499;52.472;13.448;2023-03-08T00:24:35;1.30;99.90
18741;DHT22;9499;52.472;13.448;2023-03-08T00:27:02;1.30;99.90
18741;DHT22;9499;52.472;13.448;2023-03-08T00:29:29;1.30;99.90
18741;DHT22;9499;52.472;13.448;2023-03-08T00:31:56;1.30;99.90
18741;DHT22;9499;52.472;13.448;2023-03-08T00:34:22;1.20;99.90
18741;DHT22;9499;52.472;13.448;2023-03-08T00:36:49;1.30;99.90
18741;DHT22;9499;52.472;13.448;2023-03-08T00:39:17;1.30;99.90
18741;DHT22;9499;52.472;13.448;2023-03-08T00:41:45;1.20;99.90
18741;DHT22;9499;52.472;13.448;2023-03-08T00:44:11;1.20;99.90
18741;DHT22;9499;52.472;13.448;2023-03-08T00:46:38;1.20;99.90
18741;DHT22;9499;52.472;13.448;2023-03-08T00:49:04;1.20;99.90
18741;DHT22;9499;52.472;13.448;2023-03-08T00:51:31;1.10;99.90
18741;DHT22;9499;52.472;13.448;2023-03-08T00:53:57;1.20;99.90
18741;DHT22;9499;52.472;13.448;2023-03-08T00:56:24;1.10;99.90
18741;DHT22;9499;52.472;13.448;2023-03-08T00:58:51;1.10;99.90
18741;DHT22;9499;52.472;13.448;2023-03-08T01:01:18;1.10;99.90
18741;DHT22;9499;52.472;13.448;2023-03-08T01:03:45;1.10;99.90
18741;DHT22;9499;52.472;13.448;2023-03-08T01:06:13;1.10;99.90
18741;DHT22;9499;52.472;13.448;2023-03-08T01:08:40;1.00;99.90
18741;DHT22;9499;52.472;13.448;2023-03-08T01:11:07;1.00;99.90
18741;DHT22;9499;52.472;13.448;2023-03-08T01:13:39;1.00;99.90
18741;DHT22;9499;52.472;13.448;2023-03-08T01:16:14;1.00;99.90
18741;DHT22;9499;52.472;13.448;2023-03-08T01:18:40;1.00;99.90
18741;DHT22;9499;52.472;13.448;2023-03-08T01:21:09;1.00;99.90
18741;DHT22;9499;52.472;13.448;2023-03-08T01:23:35;1.00;99.90
18741;DHT22;9499;52.472;13.448;2023-03-08T01:26:04;1.00;99.90
18741;DHT22;9499;52.472;13.448;2023-03-08T01:28:31;1.00;99.90
18741;DHT22;9499;52.472;13.448;2023-03-08T01:31:02;1.00;99.90
18741;DHT22;9499;52.472;13.448;2023-03-08T01:33:31;0.90;99.90
18741;DHT22;9499;52.472;13.448;2023-03-08T01:35:57;0.90;99.90
18741;DHT22;9499;52.472;13.448;2023-03-08T01:38:24;0.90;99.90
18741;DHT22;9499;52.472;13.448;2023-03-08T01:40:55;0.90;99.90
18741;DHT22;9499;52.472;13.448;2023-03-08T01:43:23;0.90;99.90
18741;DHT22;9499;52.472;13.448;2023-03-08T01:46:24;0.80;99.90
18741;DHT22;9499;52.472;13.448;2023-03-08T01:48:56;0.80;99.90
18741;DHT22;9499;52.472;13.448;2023-03-08T01:51:30;0.80;99.90
18741;DHT22;9499;52.472;13.448;2023-03-08T01:54:02;0.80;99.90
18741;DHT22;9499;52.472;13.448;2023-03-08T01:56:30;0.70;99.90
18741;DHT22;9499;52.472;13.448;2023-03-08T01:58:57;0.70;99.90
18741;DHT22;9499;52.472;13.448;2023-03-08T02:01:25;0.70;99.90
18741;DHT22;9499;52.472;13.448;2023-03-08T02:03:53;0.70;99.90
18741;DHT22;9499;52.472;13.448;2023-03-08T02:06:20;0.70;99.90
18741;DHT22;9499;52.472;13.448;2023-03-08T02:08:47;0.70;99.90
18741;DHT22;9499;52.472;13.448;2023-03-08T02:11:15;0.70;99.90
18741;DHT22;9499;52.472;13.448;2023-03-08T02:13:42;0.60;99.90
18741;DHT22;9499;52.472;13.448;2023-03-08T02:16:12;0.60;99.90
18741;DHT22;9499;52.472;13.448;2023-03-08T02:18:49;0.60;99.90
18741;DHT22;9499;52.472;13.448;2023-03-08T02:21:17;0.60;99.90
18741;DHT22;9499;52.472;13.448;2023-03-08T02:23:44;0.60;99.90
18741;DHT22;9499;52.472;13.448;2023-03-08T02:26:11;0.60;99.90
18741;DHT22;9499;52.472;13.448;2023-03-08T02:28:38;0.60;99.90
18741;DHT22;9499;52.472;13.448;2023-03-08T02:31:05;0.60;99.90
18741;DHT22;9499;52.472;13.448;2023-03-08T02:33:32;0.60;99.90
18741;DHT22;9499;52.472;13.448;2023-03-08T02:36:00;0.50;99.90
18741;DHT22;9499;52.472;13.448;2023-03-08T02:38:27;0.50;99.90
18741;DHT22;9499;52.472;13.448;2023-03-08T02:40:54;0.60;99.90
18741;DHT22;9499;52.472;13.448;2023-03-08T02:43:21;0.60;99.90
18741;DHT22;9499;52.472;13.448;2023-03-08T02:45:48;0.60;99.90
18741;DHT22;9499;52.472;13.448;2023-03-08T02:48:15;0.60;99.90
18741;DHT22;9499;52.472;13.448;2023-03-08T02:50:41;0.50;99.90
18741;DHT22;9499;52.472;13.448;2023-03-08T02:53:08;0.60;99.90
18741;DHT22;9499;52.472;13.448;2023-03-08T02:55:35;0.60;99.90
18741;DHT22;9499;52.472;13.448;2023-03-08T02:58:04;0.60;99.90
18741;DHT22;9499;52.472;13.448;2023-03-08T03:00:31;0.50;99.90
18741;DHT22;9499;52.472;13.448;2023-03-08T03:02:57;0.50;99.90
18741;DHT22;9499;52.472;13.448;2023-03-08T03:05:24;0.50;99.90
18741;DHT22;9499;52.472;13.448;2023-03-08T03:07:50;0.50;99.90
18741;DHT22;9499;52.472;13.448;2023-03-08T03:10:17;0.50;99.90
18741;DHT22;9499;52.472;13.448;2023-03-08T03:12:44;0.50;99.90
18741;DHT22;9499;52.472;13.448;2023-03-08T03:15:12;0.50;99.90
18741;DHT22;9499;52.472;13.448;2023-03-08T03:17:38;0.50;99.90
18741;DHT22;9499;52.472;13.448;2023-03-08T03:20:07;0.40;99.90
18741;DHT22;9499;52.472;13.448;2023-03-08T03:22:34;0.40;99.90
18741;DHT22;9499;52.472;13.448;2023-03-08T03:25:01;0.40;99.90
18741;DHT22;9499;52.472;13.448;2023-03-08T03:27:27;0.40;99.90
18741;DHT22;9499;52.472;13.448;2023-03-08T03:29:54;0.40;99.90
18741;DHT22;9499;52.472;13.448;2023-03-08T03:32:22;0.40;99.90
18741;DHT22;9499;52.472;13.448;2023-03-08T03:34:48;0.40;99.90
18741;DHT22;9499;52.472;13.448;2023-03-08T03:37:14;0.30;99.90
18741;DHT22;9499;52.472;13.448;2023-03-08T03:39:41;0.40;99.90
18741;DHT22;9499;52.472;13.448;2023-03-08T03:42:08;0.40;99.90
18741;DHT22;9499;52.472;13.448;2023-03-08T03:44:35;0.40;99.90
18741;DHT22;9499;52.472;13.448;2023-03-08T03:47:01;0.40;99.90
18741;DHT22;9499;52.472;13.448;2023-03-08T03:49:29;0.40;99.90
18741;DHT22;9499;52.472;13.448;2023-03-08T03:51:55;0.40;99.90
18741;DHT22;9499;52.472;13.448;2023-03-08T03:54:22;0.40;99.90
18741;DHT22;9499;52.472;13.448;2023-03-08T03:56:48;0.40;99.90
18741;DHT22;9499;52.472;13.448;2023-03-08T03:59:15;0.40;99.90
18741;DHT22;9499;52.472;13.448;2023-03-08T04:01:42;0.50;99.90
18741;DHT22;9499;52.472;13.448;2023-03-08T04:04:08;0.50;99.90
18741;DHT22;9499;52.472;13.448;2023-03-08T04:06:36;0.40;99.90
18741;DHT22;9499;52.472;13.448;2023-03-08T04:09:05;0.40;99.90
18741;DHT22;9499;52.472;13.448;2023-03-08T04:11:34;0.40;99.90
18741;DHT22;9499;52.472;13.448;2023-03-08T04:14:01;0.50;99.90
18741;DHT22;9499;52.472;13.448;2023-03-08T04:16:29;0.50;99.90
18741;DHT22;9499;52.472;13.448;2023-03-08T04:18:58;0.50;99.90
18741;DHT22;9499;52.472;13.448;2023-03-08T04:21:25;0.40;99.90
18741;DHT22;9499;52.472;13.448;2023-03-08T04:23:53;0.50;99.90
18741;DHT22;9499;52.472;13.448;2023-03-08T04:26:20;0.50;99.90
18741;DHT22;9499;52.472;13.448;2023-03-08T04:28:47;0.50;99.90
18741;DHT22;9499;52.472;13.448;2023-03-08T04:31:16;0.50;99.90
18741;DHT22;9499;52.472;13.448;2023-03-08T04:33:42;0.50;99.90
18741;DHT22;9499;52.472;13.448;2023-03-08T04:36:09;0.50;99.90
18741;DHT22;9499;52.472;13.448;2023-03-08T04:38:36;0.50;99.90
18741;DHT22;9499;52.472;13.448;2023-03-08T04:41:04;0.50;99.90
18741;DHT22;9499;52.472;13.448;2023-03-08T04:43:36;0.50;99.90
18741;DHT22;9499;52.472;13.448;2023-03-08T04:46:04;0.50;99.90
18741;DHT22;9499;52.472;13.448;2023-03-08T04:48:31;0.50;99.90
18741;DHT22;9499;52.472;13.448;2023-03-08T04:50:59;0.60;99.90
18741;DHT22;9499;52.472;13.448;2023-03-08T04:53:27;0.60;99.90
18741;DHT22;9499;52.472;13.448;2023-03-08T04:55:54;0.50;99.90
18741;DHT22;9499;52.472;13.448;2023-03-08T04:58:22;0.50;99.90
18741;DHT22;9499;52.472;13.448;2023-03-08T05:00:48;0.50;99.90
18741;DHT22;9499;52.472;13.448;2023-03-08T05:03:15;0.50;99.90
18741;DHT22;9499;52.472;13.448;2023-03-08T05:05:45;0.50;99.90
18741;DHT22;9499;52.472;13.448;2023-03-08T05:08:12;0.50;99.90
18741;DHT22;9499;52.472;13.448;2023-03-08T05:10:38;0.40;99.90
18741;DHT22;9499;52.472;13.448;2023-03-08T05:13:05;0.40;99.90
18741;DHT22;9499;52.472;13.448;2023-03-08T05:15:34;0.40;99.90
18741;DHT22;9499;52.472;13.448;2023-03-08T05:18:00;0.40;99.90
18741;DHT22;9499;52.472;13.448;2023-03-08T05:20:27;0.40;99.90
18741;DHT22;9499;52.472;13.448;2023-03-08T05:22:53;0.40;99.90
18741;DHT22;9499;52.472;13.448;2023-03-08T05:25:20;0.50;99.90
18741;DHT22;9499;52.472;13.448;2023-03-08T05:27:46;0.40;99.90
18741;DHT22;9499;52.472;13.448;2023-03-08T05:30:13;0.50;99.90
18741;DHT22;9499;52.472;13.448;2023-03-08T05:32:41;0.40;99.90
18741;DHT22;9499;52.472;13.448;2023-03-08T05:35:08;0.40;99.90
18741;DHT22;9499;52.472;13.448;2023-03-08T05:37:34;0.40;99.90
18741;DHT22;9499;52.472;13.448;2023-03-08T05:40:01;0.30;99.90
18741;DHT22;9499;52.472;13.448;2023-03-08T05:42:30;0.30;99.90
18741;DHT22;9499;52.472;13.448;2023-03-08T05:44:56;0.30;99.90
18741;DHT22;9499;52.472;13.448;2023-03-08T05:47:23;0.30;99.90
18741;DHT22;9499;52.472;13.448;2023-03-08T05:49:51;0.30;99.90
18741;DHT22;9499;52.472;13.448;2023-03-08T05:52:17;0.30;99.90
18741;DHT22;9499;52.472;13.448;2023-03-08T05:54:44;0.20;99.90
18741;DHT22;9499;52.472;13.448;2023-03-08T05:57:10;0.20;99.90
18741;DHT22;9499;52.472;13.448;2023-03-08T05:59:37;0.20;99.90
18741;DHT22;9499;52.472;13.448;2023-03-08T06:02:03;0.30;99.90
18741;DHT22;9499;52.472;13.448;2023-03-08T06:04:30;0.30;99.90
18741;DHT22;9499;52.472;13.448;2023-03-08T06:06:58;0.30;99.90
18741;DHT22;9499;52.472;13.448;2023-03-08T06:09:25;0.20;99.90
18741;DHT22;9499;52.472;13.448;2023-03-08T06:11:51;0.20;99.90
18741;DHT22;9499;52.472;13.448;2023-03-08T06:14:18;0.20;99.90
18741;DHT22;9499;52.472;13.448;2023-03-08T06:16:44;0.10;99.90
18741;DHT22;9499;52.472;13.448;2023-03-08T06:19:13;0.10;99.90
18741;DHT22;9499;52.472;13.448;2023-03-08T06:21:39;0.10;99.90
18741;DHT22;9499;52.472;13.448;2023-03-08T06:24:07;0.20;99.90
18741;DHT22;9499;52.472;13.448;2023-03-08T06:26:34;0.20;99.90
18741;DHT22;9499;52.472;13.448;2023-03-08T06:29:00;0.20;99.90
18741;DHT22;9499;52.472;13.448;2023-03-08T06:31:27;0.10;99.90
18741;DHT22;9499;52.472;13.448;2023-03-08T06:33:53;0.10;99.90
18741;DHT22;9499;52.472;13.448;2023-03-08T06:36:20;0.10;99.90
18741;DHT22;9499;52.472;13.448;2023-03-08T06:38:47;0.20;99.90
18741;DHT22;9499;52.472;13.448;2023-03-08T06:41:17;0.20;99.90
18741;DHT22;9499;52.472;13.448;2023-03-08T06:43:44;0.30;99.90
18741;DHT22;9499;52.472;13.448;2023-03-08T06:46:12;0.20;99.90
18741;DHT22;9499;52.472;13.448;2023-03-08T06:48:39;0.20;99.90
18741;DHT22;9499;52.472;13.448;2023-03-08T06:51:06;0.20;99.90
18741;DHT22;9499;52.472;13.448;2023-03-08T06:53:32;0.20;99.90
18741;DHT22;9499;52.472;13.448;2023-03-08T06:56:01;0.20;99.90
18741;DHT22;9499;52.472;13.448;2023-03-08T06:58:29;0.20;99.90
18741;DHT22;9499;52.472;13.448;2023-03-08T07:00:56;0.30;99.90
18741;DHT22;9499;52.472;13.448;2023-03-08T07:03:24;0.40;99.90
18741;DHT22;9499;52.472;13.448;2023-03-08T07:05:51;0.40;99.90
18741;DHT22;9499;52.472;13.448;2023-03-08T07:08:17;0.50;99.90
18741;DHT22;9499;52.472;13.448;2023-03-08T07:10:44;0.50;99.90
18741;DHT22;9499;52.472;13.448;2023-03-08T07:13:10;0.50;99.90
18741;DHT22;9499;52.472;13.448;2023-03-08T07:15:39;0.50;99.90
18741;DHT22;9499;52.472;13.448;2023-03-08T07:18:06;0.60;99.90
18741;DHT22;9499;52.472;13.448;2023-03-08T07:20:32;0.60;99.90
18741;DHT22;9499;52.472;13.448;2023-03-08T07:22:59;0.60;99.90
18741;DHT22;9499;52.472;13.448;2023-03-08T07:25:26;0.60;99.90
18741;DHT22;9499;52.472;13.448;2023-03-08T07:27:53;0.70;99.90
18741;DHT22;9499;52.472;13.448;2023-03-08T07:30:20;0.70;99.90
18741;DHT22;9499;52.472;13.448;2023-03-08T07:32:48;0.80;99.90
18741;DHT22;9499;52.472;13.448;2023-03-08T07:35:14;0.80;99.90
18741;DHT22;9499;52.472;13.448;2023-03-08T07:37:43;0.90;99.90
18741;DHT22;9499;52.472;13.448;2023-03-08T07:40:11;0.90;99.90
18741;DHT22;9499;52.472;13.448;2023-03-08T07:42:38;1.00;99.90
18741;DHT22;9499;52.472;13.448;2023-03-08T07:45:05;1.10;99.90
18741;DHT22;9499;52.472;13.448;2023-03-08T07:47:32;1.10;99.90
18741;DHT22;9499;52.472;13.448;2023-03-08T07:50:00;1.20;99.90
18741;DHT22;9499;52.472;13.448;2023-03-08T07:52:26;1.20;99.90
18741;DHT22;9499;52.472;13.448;2023-03-08T07:54:54;1.20;99.90
18741;DHT22;9499;52.472;13.448;2023-03-08T07:57:20;1.30;99.90
18741;DHT22;9499;52.472;13.448;2023-03-08T07:59:47;1.30;99.90
18741;DHT22;9499;52.472;13.448;2023-03-08T08:02:15;1.40;99.90
18741;DHT22;9499;52.472;13.448;2023-03-08T08:04:41;1.50;99.90
18741;DHT22;9499;52.472;13.448;2023-03-08T08:07:13;1.50;99.90
18741;DHT22;9499;52.472;13.448;2023-03-08T08:09:40;1.50;99.90
18741;DHT22;9499;52.472;13.448;2023-03-08T08:12:07;1.60;99.90
18741;DHT22;9499;52.472;13.448;2023-03-08T08:14:33;1.50;99.90
18741;DHT22;9499;52.472;13.448;2023-03-08T08:17:00;1.60;99.90
18741;DHT22;9499;52.472;13.448;2023-03-08T08:19:27;1.60;99.90
18741;DHT22;9499;52.472;13.448;2023-03-08T08:21:53;1.60;99.90
18741;DHT22;9499;52.472;13.448;2023-03-08T08:24:21;1.60;99.90
18741;DHT22;9499;52.472;13.448;2023-03-08T08:26:48;1.60;99.90
18741;DHT22;9499;52.472;13.448;2023-03-08T08:29:14;1.70;99.90
18741;DHT22;9499;52.472;13.448;2023-03-08T08:31:41;1.70;99.90
18741;DHT22;9499;52.472;13.448;2023-03-08T08:34:07;1.80;99.90
18741;DHT22;9499;52.472;13.448;2023-03-08T08:36:34;1.90;99.90
18741;DHT22;9499;52.472;13.448;2023-03-08T08:39:00;1.90;99.90
18741;DHT22;9499;52.472;13.448;2023-03-08T08:41:28;2.00;99.90
18741;DHT22;9499;52.472;13.448;2023-03-08T08:43:57;1.90;99.90
18741;DHT22;9499;52.472;13.448;2023-03-08T08:46:24;1.90;99.90
18741;DHT22;9499;52.472;13.448;2023-03-08T08:48:52;1.90;99.90
18741;DHT22;9499;52.472;13.448;2023-03-08T08:51:18;1.90;99.90
18741;DHT22;9499;52.472;13.448;2023-03-08T08:53:45;2.00;99.90
18741;DHT22;9499;52.472;13.448;2023-03-08T08:56:13;2.10;99.90
18741;DHT22;9499;52.472;13.448;2023-03-08T08:58:41;2.20;99.90
18741;DHT22;9499;52.472;13.448;2023-03-08T09:01:15;2.30;99.90
18741;DHT22;9499;52.472;13.448;2023-03-08T09:03:42;2.40;99.90
18741;DHT22;9499;52.472;13.448;2023-03-08T09:06:09;2.40;99.90
18741;DHT22;9499;52.472;13.448;2023-03-08T09:08:35;2.40;99.90
18741;DHT22;9499;52.472;13.448;2023-03-08T09:11:03;2.40;1.00
18741;DHT22;9499;52.472;13.448;2023-03-08T09:13:30;2.60;1.00
18741;DHT22;9499;52.472;13.448;2023-03-08T09:15:58;2.60;1.00
18741;DHT22;9499;52.472;13.448;2023-03-08T09:18:25;2.60;1.00
18741;DHT22;9499;52.472;13.448;2023-03-08T09:20:52;2.50;1.00
18741;DHT22;9499;52.472;13.448;2023-03-08T09:23:18;2.60;1.00
18741;DHT22;9499;52.472;13.448;2023-03-08T09:25:53;2.70;99.90
18741;DHT22;9499;52.472;13.448;2023-03-08T09:28:20;2.70;1.00
18741;DHT22;9499;52.472;13.448;2023-03-08T09:30:46;2.70;1.00
18741;DHT22;9499;52.472;13.448;2023-03-08T09:33:14;2.80;1.00
18741;DHT22;9499;52.472;13.448;2023-03-08T09:35:41;2.70;1.00
18741;DHT22;9499;52.472;13.448;2023-03-08T09:38:07;2.80;1.00
18741;DHT22;9499;52.472;13.448;2023-03-08T09:40:38;3.00;1.00
18741;DHT22;9499;52.472;13.448;2023-03-08T09:43:16;3.10;1.00
18741;DHT22;9499;52.472;13.448;2023-03-08T09:45:50;3.20;99.90
18741;DHT22;9499;52.472;13.448;2023-03-08T09:48:21;3.20;1.00
18741;DHT22;9499;52.472;13.448;2023-03-08T09:50:50;3.20;1.00
18741;DHT22;9499;52.472;13.448;2023-03-08T09:53:23;3.20;63.50
18741;DHT22;9499;52.472;13.448;2023-03-08T09:55:54;3.20;12.10
18741;DHT22;9499;52.472;13.448;2023-03-08T09:58:30;3.20;99.90
18741;DHT22;9499;52.472;13.448;2023-03-08T10:01:02;3.30;8.40
18741;DHT22;9499;52.472;13.448;2023-03-08T10:04:02;3.30;1.00
18741;DHT22;9499;52.472;13.448;2023-03-08T10:06:38;3.30;1.00
18741;DHT22;9499;52.472;13.448;2023-03-08T10:09:17;3.40;1.00
18741;DHT22;9499;52.472;13.448;2023-03-08T10:11:53;3.60;99.90
18741;DHT22;9499;52.472;13.448;2023-03-08T10:14:25;3.70;1.00
18741;DHT22;9499;52.472;13.448;2023-03-08T10:16:55;4.00;99.90
18741;DHT22;9499;52.472;13.448;2023-03-08T10:19:27;4.20;1.00
18741;DHT22;9499;52.472;13.448;2023-03-08T10:21:59;4.50;1.00
18741;DHT22;9499;52.472;13.448;2023-03-08T10:24:33;4.60;1.00
18741;DHT22;9499;52.472;13.448;2023-03-08T10:27:14;4.60;1.00
18741;DHT22;9499;52.472;13.448;2023-03-08T10:29:47;4.60;99.90
18741;DHT22;9499;52.472;13.448;2023-03-08T10:32:14;4.60;49.30
18741;DHT22;9499;52.472;13.448;2023-03-08T10:34:42;4.50;1.00
18741;DHT22;9499;52.472;13.448;2023-03-08T10:37:08;4.40;1.00
18741;DHT22;9499;52.472;13.448;2023-03-08T10:39:35;4.30;57.70
18741;DHT22;9499;52.472;13.448;2023-03-08T10:42:11;4.20;1.00
18741;DHT22;9499;52.472;13.448;2023-03-08T10:44:43;4.20;1.00
18741;DHT22;9499;52.472;13.448;2023-03-08T10:47:18;4.20;99.90
18741;DHT22;9499;52.472;13.448;2023-03-08T10:49:47;4.20;1.00
18741;DHT22;9499;52.472;13.448;2023-03-08T10:52:22;4.30;1.00
18741;DHT22;9499;52.472;13.448;2023-03-08T10:54:59;4.40;99.90
18741;DHT22;9499;52.472;13.448;2023-03-08T10:57:26;4.70;1.00
18741;DHT22;9499;52.472;13.448;2023-03-08T11:00:00;4.70;1.00
18741;DHT22;9499;52.472;13.448;2023-03-08T11:02:29;4.70;1.00
18741;DHT22;9499;52.472;13.448;2023-03-08T11:04:58;4.60;1.00
18741;DHT22;9499;52.472;13.448;2023-03-08T11:07:27;4.60;1.00
18741;DHT22;9499;52.472;13.448;2023-03-08T11:10:05;4.70;1.00
18741;DHT22;9499;52.472;13.448;2023-03-08T11:12:39;4.60;99.90
18741;DHT22;9499;52.472;13.448;2023-03-08T11:15:12;4.50;1.00
18741;DHT22;9499;52.472;13.448;2023-03-08T11:17:39;4.50;99.90
18741;DHT22;9499;52.472;13.448;2023-03-08T11:20:15;4.40;99.90
18741;DHT22;9499;52.472;13.448;2023-03-08T11:23:03;4.40;99.90
18741;DHT22;9499;52.472;13.448;2023-03-08T11:25:37;4.50;1.00
18741;DHT22;9499;52.472;13.448;2023-03-08T11:28:24;4.50;1.00
18741;DHT22;9499;52.472;13.448;2023-03-08T11:31:02;4.40;1.00
18741;DHT22;9499;52.472;13.448;2023-03-08T11:33:47;4.50;1.00
18741;DHT22;9499;52.472;13.448;2023-03-08T11:36:21;4.50;99.90
18741;DHT22;9499;52.472;13.448;2023-03-08T11:38:57;4.40;99.90
18741;DHT22;9499;52.472;13.448;2023-03-08T11:41:31;4.30;93.60
18741;DHT22;9499;52.472;13.448;2023-03-08T11:44:12;4.40;99.90
18741;DHT22;9499;52.472;13.448;2023-03-08T11:46:49;4.40;99.90
18741;DHT22;9499;52.472;13.448;2023-03-08T11:49:29;4.40;62.20
18741;DHT22;9499;52.472;13.448;2023-03-08T11:52:05;4.50;1.00
18741;DHT22;9499;52.472;13.448;2023-03-08T11:54:45;4.60;99.90
18741;DHT22;9499;52.472;13.448;2023-03-08T11:57:17;4.50;99.90
18741;DHT22;9499;52.472;13.448;2023-03-08T11:59:45;4.50;1.00
18741;DHT22;9499;52.472;13.448;2023-03-08T12:02:17;4.60;99.90
18741;DHT22;9499;52.472;13.448;2023-03-08T12:04:55;4.50;99.90
18741;DHT22;9499;52.472;13.448;2023-03-08T12:07:30;4.50;99.90
18741;DHT22;9499;52.472;13.448;2023-03-08T12:10:02;4.60;1.00
18741;DHT22;9499;52.472;13.448;2023-03-08T12:12:34;4.60;1.00
18741;DHT22;9499;52.472;13.448;2023-03-08T12:15:10;4.60;1.00
18741;DHT22;9499;52.472;13.448;2023-03-08T12:17:41;4.60;99.90
18741;DHT22;9499;52.472;13.448;2023-03-08T12:20:12;4.80;1.00
18741;DHT22;9499;52.472;13.448;2023-03-08T12:22:44;4.80;1.00
18741;DHT22;9499;52.472;13.448;2023-03-08T12:25:20;4.80;99.90
18741;DHT22;9499;52.472;13.448;2023-03-08T12:27:51;4.80;99.90
18741;DHT22;9499;52.472;13.448;2023-03-08T12:30:29;4.90;1.00
18741;DHT22;9499;52.472;13.448;2023-03-08T12:33:01;4.90;1.00
18741;DHT22;9499;52.472;13.448;2023-03-08T12:35:30;4.90;1.00
18741;DHT22;9499;52.472;13.448;2023-03-08T12:38:00;4.90;1.00
18741;DHT22;9499;52.472;13.448;2023-03-08T12:40:33;5.00;1.00
18741;DHT22;9499;52.472;13.448;2023-03-08T12:43:05;4.90;1.00
18741;DHT22;9499;52.472;13.448;2023-03-08T12:45:33;4.90;1.00
18741;DHT22;9499;52.472;13.448;2023-03-08T12:48:08;4.90;1.00
18741;DHT22;9499;52.472;13.448;2023-03-08T12:50:38;4.80;1.00
18741;DHT22;9499;52.472;13.448;2023-03-08T12:53:23;4.70;99.90
18741;DHT22;9499;52.472;13.448;2023-03-08T12:55:59;4.70;1.00
18741;DHT22;9499;52.472;13.448;2023-03-08T12:58:26;4.70;1.00
18741;DHT22;9499;52.472;13.448;2023-03-08T13:00:57;4.70;1.00
18741;DHT22;9499;52.472;13.448;2023-03-08T13:03:27;4.70;1.00
18741;DHT22;9499;52.472;13.448;2023-03-08T13:05:54;4.60;99.90
18741;DHT22;9499;52.472;13.448;2023-03-08T13:08:35;4.60;1.00
18741;DHT22;9499;52.472;13.448;2023-03-08T13:11:10;4.60;1.00
18741;DHT22;9499;52.472;13.448;2023-03-08T13:13:44;4.60;1.00
18741;DHT22;9499;52.472;13.448;2023-03-08T13:16:30;4.60;1.00
18741;DHT22;9499;52.472;13.448;2023-03-08T13:19:06;4.50;99.90
18741;DHT22;9499;52.472;13.448;2023-03-08T13:21:37;4.50;1.00
18741;DHT22;9499;52.472;13.448;2023-03-08T13:24:10;4.40;99.90
18741;DHT22;9499;52.472;13.448;2023-03-08T13:27:01;4.40;1.00
18741;DHT22;9499;52.472;13.448;2023-03-08T13:29:33;4.50;1.00
18741;DHT22;9499;52.472;13.448;2023-03-08T13:32:04;4.40;99.90
18741;DHT22;9499;52.472;13.448;2023-03-08T13:34:33;4.40;1.00
18741;DHT22;9499;52.472;13.448;2023-03-08T13:37:00;4.40;1.00
18741;DHT22;9499;52.472;13.448;2023-03-08T13:39:30;4.30;1.00
18741;DHT22;9499;52.472;13.448;2023-03-08T13:42:07;4.40;99.90
18741;DHT22;9499;52.472;13.448;2023-03-08T13:44:34;4.40;99.90
18741;DHT22;9499;52.472;13.448;2023-03-08T13:47:03;4.30;1.00
18741;DHT22;9499;52.472;13.448;2023-03-08T13:49:32;4.30;99.90
18741;DHT22;9499;52.472;13.448;2023-03-08T13:52:03;4.20;99.90
18741;DHT22;9499;52.472;13.448;2023-03-08T13:54:34;4.10;1.00
18741;DHT22;9499;52.472;13.448;2023-03-08T13:57:03;3.90;1.00
18741;DHT22;9499;52.472;13.448;2023-03-08T13:59:31;3.90;99.90
18741;DHT22;9499;52.472;13.448;2023-03-08T14:01:59;3.80;99.90
18741;DHT22;9499;52.472;13.448;2023-03-08T14:04:27;3.80;1.00
18741;DHT22;9499;52.472;13.448;2023-03-08T14:06:56;3.80;1.00
18741;DHT22;9499;52.472;13.448;2023-03-08T14:09:23;3.80;1.00
18741;DHT22;9499;52.472;13.448;2023-03-08T14:11:56;3.70;1.00
18741;DHT22;9499;52.472;13.448;2023-03-08T14:14:27;3.70;1.00
18741;DHT22;9499;52.472;13.448;2023-03-08T14:16:55;3.50;1.00
18741;DHT22;9499;52.472;13.448;2023-03-08T14:19:23;3.40;1.00
18741;DHT22;9499;52.472;13.448;2023-03-08T14:21:53;3.40;1.00
18741;DHT22;9499;52.472;13.448;2023-03-08T14:24:24;3.40;1.00
18741;DHT22;9499;52.472;13.448;2023-03-08T14:26:57;3.40;1.00
18741;DHT22;9499;52.472;13.448;2023-03-08T14:29:25;3.30;1.00
18741;DHT22;9499;52.472;13.448;2023-03-08T14:31:55;3.30;1.00
18741;DHT22;9499;52.472;13.448;2023-03-08T14:34:24;3.20;4.90
18741;DHT22;9499;52.472;13.448;2023-03-08T14:36:55;3.10;38.20
18741;DHT22;9499;52.472;13.448;2023-03-08T14:39:24;3.00;73.50
18741;DHT22;9499;52.472;13.448;2023-03-08T14:41:52;3.00;96.00
18741;DHT22;9499;52.472;13.448;2023-03-08T14:44:23;2.90;99.90
18741;DHT22;9499;52.472;13.448;2023-03-08T14:46:50;2.80;99.90
18741;DHT22;9499;52.472;13.448;2023-03-08T14:49:24;2.80;99.90
18741;DHT22;9499;52.472;13.448;2023-03-08T14:51:51;2.70;99.90
18741;DHT22;9499;52.472;13.448;2023-03-08T14:54:29;2.70;99.90
18741;DHT22;9499;52.472;13.448;2023-03-08T14:56:57;2.70;99.90
18741;DHT22;9499;52.472;13.448;2023-03-08T14:59:25;2.70;99.90
18741;DHT22;9499;52.472;13.448;2023-03-08T15:01:52;2.70;99.90
18741;DHT22;9499;52.472;13.448;2023-03-08T15:04:20;2.70;99.90
18741;DHT22;9499;52.472;13.448;2023-03-08T15:06:48;2.80;99.90
18741;DHT22;9499;52.472;13.448;2023-03-08T15:09:17;2.80;99.90
18741;DHT22;9499;52.472;13.448;2023-03-08T15:11:44;2.70;99.90
18741;DHT22;9499;52.472;13.448;2023-03-08T15:14:12;2.70;99.90
18741;DHT22;9499;52.472;13.448;2023-03-08T15:16:40;2.70;99.90
18741;DHT22;9499;52.472;13.448;2023-03-08T15:19:07;2.70;99.90
18741;DHT22;9499;52.472;13.448;2023-03-08T15:21:35;2.70;99.90
18741;DHT22;9499;52.472;13.448;2023-03-08T15:24:02;2.60;99.90
18741;DHT22;9499;52.472;13.448;2023-03-08T15:26:30;2.50;99.90
18741;DHT22;9499;52.472;13.448;2023-03-08T15:28:57;2.50;99.90
18741;DHT22;9499;52.472;13.448;2023-03-08T15:31:25;2.50;99.90
18741;DHT22;9499;52.472;13.448;2023-03-08T15:33:53;2.40;99.90
18741;DHT22;9499;52.472;13.448;2023-03-08T15:36:19;2.40;99.90
18741;DHT22;9499;52.472;13.448;2023-03-08T15:38:46;2.30;99.90
18741;DHT22;9499;52.472;13.448;2023-03-08T15:41:15;2.40;99.90
18741;DHT22;9499;52.472;13.448;2023-03-08T15:43:42;2.30;99.90
18741;DHT22;9499;52.472;13.448;2023-03-08T15:46:10;2.40;99.90
18741;DHT22;9499;52.472;13.448;2023-03-08T15:48:37;2.40;99.90
18741;DHT22;9499;52.472;13.448;2023-03-08T15:51:05;2.40;99.90
18741;DHT22;9499;52.472;13.448;2023-03-08T15:53:32;2.30;99.90
18741;DHT22;9499;52.472;13.448;2023-03-08T15:55:58;2.30;99.90
18741;DHT22;9499;52.472;13.448;2023-03-08T15:58:25;2.30;99.90
18741;DHT22;9499;52.472;13.448;2023-03-08T16:00:51;2.30;99.90